Aviation Digital Data Service (ADDS)

Output produced by METARs form (1314 UTC 24 January 2017)
found at http://aviationweather.gov/adds/metars/
 
KPBG 241248Z 2413/2512 01015KT 3SM -SN BR OVC011 
     TEMPO 2413/2416 2SM -FZRASNPL BR OVC015 
     FM241600 36014G20KT 4SM -FZRA BR OVC015 
     FM242000 35014G20KT 5SM -FZRA BR OVC020 
     FM250200 35012KT 4SM -PLSN BR OVC020